sensor_id;sensor_type;location;lat;lon;timestamp;P1;durP1;ratioP1;P2;durP2;ratioP2
59649;SDS011;46162;57.568;25.814;2024-03-23T00:51:35;22.52;;;5.72;;
59649;SDS011;46162;57.568;25.814;2024-03-23T00:54:03;19.73;;;6.80;;
59649;SDS011;46162;57.568;25.814;2024-03-23T00:56:30;20.15;;;5.78;;
59649;SDS011;46162;57.568;25.814;2024-03-23T00:58:57;24.00;;;6.65;;
59649;SDS011;46162;57.568;25.814;2024-03-23T01:01:24;20.60;;;6.38;;
59649;SDS011;46162;57.568;25.814;2024-03-23T01:03:51;25.02;;;6.65;;
59649;SDS011;46162;57.568;25.814;2024-03-23T01:06:21;23.90;;;6.68;;
59649;SDS011;46162;57.568;25.814;2024-03-23T01:08:50;23.15;;;6.40;;
59649;SDS011;46162;57.568;25.814;2024-03-23T01:11:16;25.80;;;6.88;;
59649;SDS011;46162;57.568;25.814;2024-03-23T01:13:44;21.60;;;5.47;;
59649;SDS011;46162;57.568;25.814;2024-03-23T01:16:10;19.30;;;5.38;;
59649;SDS011;46162;57.568;25.814;2024-03-23T01:18:38;22.45;;;5.45;;
59649;SDS011;46162;57.568;25.814;2024-03-23T01:21:04;17.15;;;5.10;;
59649;SDS011;46162;57.568;25.814;2024-03-23T01:23:32;26.42;;;5.55;;
59649;SDS011;46162;57.568;25.814;2024-03-23T01:26:00;18.08;;;4.82;;
59649;SDS011;46162;57.568;25.814;2024-03-23T01:28:27;23.73;;;5.60;;
59649;SDS011;46162;57.568;25.814;2024-03-23T01:30:54;27.13;;;5.78;;
59649;SDS011;46162;57.568;25.814;2024-03-23T01:33:21;23.08;;;5.72;;
59649;SDS011;46162;57.568;25.814;2024-03-23T01:35:48;17.73;;;5.20;;
59649;SDS011;46162;57.568;25.814;2024-03-23T01:38:15;17.63;;;4.53;;
59649;SDS011;46162;57.568;25.814;2024-03-23T01:40:41;23.25;;;6.07;;
59649;SDS011;46162;57.568;25.814;2024-03-23T01:43:11;20.13;;;5.68;;
59649;SDS011;46162;57.568;25.814;2024-03-23T01:45:37;23.17;;;5.45;;
59649;SDS011;46162;57.568;25.814;2024-03-23T01:48:05;28.30;;;6.68;;
59649;SDS011;46162;57.568;25.814;2024-03-23T01:50:32;24.05;;;6.78;;
59649;SDS011;46162;57.568;25.814;2024-03-23T01:53:00;23.30;;;6.50;;
59649;SDS011;46162;57.568;25.814;2024-03-23T01:55:28;18.02;;;5.53;;
59649;SDS011;46162;57.568;25.814;2024-03-23T01:57:56;22.38;;;5.80;;
59649;SDS011;46162;57.568;25.814;2024-03-23T02:00:25;21.67;;;6.47;;
59649;SDS011;46162;57.568;25.814;2024-03-23T02:02:53;24.35;;;6.22;;
59649;SDS011;46162;57.568;25.814;2024-03-23T02:05:20;28.70;;;7.30;;
59649;SDS011;46162;57.568;25.814;2024-03-23T02:07:48;27.48;;;6.57;;
59649;SDS011;46162;57.568;25.814;2024-03-23T02:10:15;26.52;;;7.43;;
59649;SDS011;46162;57.568;25.814;2024-03-23T02:12:42;28.15;;;7.78;;
59649;SDS011;46162;57.568;25.814;2024-03-23T02:15:09;27.38;;;6.57;;
59649;SDS011;46162;57.568;25.814;2024-03-23T02:17:38;25.83;;;6.57;;
59649;SDS011;46162;57.568;25.814;2024-03-23T02:20:04;27.30;;;5.80;;
59649;SDS011;46162;57.568;25.814;2024-03-23T02:22:36;31.58;;;8.48;;
59649;SDS011;46162;57.568;25.814;2024-03-23T02:25:05;20.97;;;6.83;;
59649;SDS011;46162;57.568;25.814;2024-03-23T02:27:33;26.05;;;6.78;;
59649;SDS011;46162;57.568;25.814;2024-03-23T02:30:02;34.33;;;7.63;;
59649;SDS011;46162;57.568;25.814;2024-03-23T02:32:30;24.83;;;7.35;;
59649;SDS011;46162;57.568;25.814;2024-03-23T02:34:56;34.55;;;8.05;;
59649;SDS011;46162;57.568;25.814;2024-03-23T02:37:24;28.27;;;7.15;;
59649;SDS011;46162;57.568;25.814;2024-03-23T02:39:50;31.80;;;8.32;;
59649;SDS011;46162;57.568;25.814;2024-03-23T02:42:19;30.65;;;8.90;;
59649;SDS011;46162;57.568;25.814;2024-03-23T02:44:45;29.40;;;9.25;;
59649;SDS011;46162;57.568;25.814;2024-03-23T02:47:13;25.38;;;7.65;;
59649;SDS011;46162;57.568;25.814;2024-03-23T02:49:39;35.47;;;8.52;;
59649;SDS011;46162;57.568;25.814;2024-03-23T02:52:07;32.65;;;8.93;;
59649;SDS011;46162;57.568;25.814;2024-03-23T02:54:33;32.63;;;8.02;;
59649;SDS011;46162;57.568;25.814;2024-03-23T02:57:01;30.88;;;7.75;;
59649;SDS011;46162;57.568;25.814;2024-03-23T02:59:28;30.27;;;8.93;;
59649;SDS011;46162;57.568;25.814;2024-03-23T03:01:56;32.63;;;8.77;;
59649;SDS011;46162;57.568;25.814;2024-03-23T03:04:22;27.67;;;6.88;;
59649;SDS011;46162;57.568;25.814;2024-03-23T03:06:50;36.20;;;6.80;;
59649;SDS011;46162;57.568;25.814;2024-03-23T03:09:16;28.95;;;6.68;;
59649;SDS011;46162;57.568;25.814;2024-03-23T03:11:44;21.50;;;4.25;;
59649;SDS011;46162;57.568;25.814;2024-03-23T03:14:10;25.13;;;4.78;;
59649;SDS011;46162;57.568;25.814;2024-03-23T03:16:39;24.90;;;4.30;;
59649;SDS011;46162;57.568;25.814;2024-03-23T03:19:06;25.33;;;4.85;;
59649;SDS011;46162;57.568;25.814;2024-03-23T03:21:33;27.50;;;4.22;;
59649;SDS011;46162;57.568;25.814;2024-03-23T03:24:00;23.85;;;4.65;;
59649;SDS011;46162;57.568;25.814;2024-03-23T03:26:27;21.27;;;3.78;;
59649;SDS011;46162;57.568;25.814;2024-03-23T03:28:54;28.63;;;3.83;;
59649;SDS011;46162;57.568;25.814;2024-03-23T03:31:21;21.85;;;3.58;;
59649;SDS011;46162;57.568;25.814;2024-03-23T03:33:50;24.48;;;3.75;;
59649;SDS011;46162;57.568;25.814;2024-03-23T03:36:17;24.48;;;3.78;;
59649;SDS011;46162;57.568;25.814;2024-03-23T03:38:43;26.50;;;3.90;;
59649;SDS011;46162;57.568;25.814;2024-03-23T03:41:11;27.13;;;3.95;;
59649;SDS011;46162;57.568;25.814;2024-03-23T03:43:37;27.15;;;4.07;;
59649;SDS011;46162;57.568;25.814;2024-03-23T03:46:05;29.17;;;3.72;;
59649;SDS011;46162;57.568;25.814;2024-03-23T03:48:33;19.67;;;3.60;;
59649;SDS011;46162;57.568;25.814;2024-03-23T03:51:03;24.45;;;4.13;;
59649;SDS011;46162;57.568;25.814;2024-03-23T03:53:30;29.13;;;4.00;;
59649;SDS011;46162;57.568;25.814;2024-03-23T03:56:00;20.13;;;3.40;;
59649;SDS011;46162;57.568;25.814;2024-03-23T03:58:27;37.28;;;4.28;;
59649;SDS011;46162;57.568;25.814;2024-03-23T04:00:55;31.80;;;3.63;;
59649;SDS011;46162;57.568;25.814;2024-03-23T04:03:21;26.27;;;4.22;;
59649;SDS011;46162;57.568;25.814;2024-03-23T04:05:52;22.25;;;3.55;;
59649;SDS011;46162;57.568;25.814;2024-03-23T04:08:20;30.92;;;3.72;;
59649;SDS011;46162;57.568;25.814;2024-03-23T04:10:48;23.85;;;3.30;;
59649;SDS011;46162;57.568;25.814;2024-03-23T04:13:15;22.08;;;3.50;;
59649;SDS011;46162;57.568;25.814;2024-03-23T04:15:43;22.20;;;3.53;;
59649;SDS011;46162;57.568;25.814;2024-03-23T04:18:09;27.23;;;4.50;;
59649;SDS011;46162;57.568;25.814;2024-03-23T04:20:37;22.40;;;3.40;;
59649;SDS011;46162;57.568;25.814;2024-03-23T04:23:03;22.33;;;3.05;;
59649;SDS011;46162;57.568;25.814;2024-03-23T04:25:32;20.83;;;2.95;;
59649;SDS011;46162;57.568;25.814;2024-03-23T04:27:59;19.33;;;3.08;;
59649;SDS011;46162;57.568;25.814;2024-03-23T04:30:26;23.55;;;2.97;;
59649;SDS011;46162;57.568;25.814;2024-03-23T04:32:55;22.27;;;2.70;;
59649;SDS011;46162;57.568;25.814;2024-03-23T04:35:23;30.15;;;3.67;;
59649;SDS011;46162;57.568;25.814;2024-03-23T04:37:51;25.15;;;3.25;;
59649;SDS011;46162;57.568;25.814;2024-03-23T04:40:19;25.63;;;2.95;;
59649;SDS011;46162;57.568;25.814;2024-03-23T04:42:48;26.23;;;4.05;;
59649;SDS011;46162;57.568;25.814;2024-03-23T04:45:15;28.58;;;3.05;;
59649;SDS011;46162;57.568;25.814;2024-03-23T04:47:43;26.98;;;3.33;;
59649;SDS011;46162;57.568;25.814;2024-03-23T04:50:11;29.58;;;2.90;;
59649;SDS011;46162;57.568;25.814;2024-03-23T04:52:38;24.30;;;3.80;;
59649;SDS011;46162;57.568;25.814;2024-03-23T04:55:08;27.38;;;3.55;;
59649;SDS011;46162;57.568;25.814;2024-03-23T04:57:37;26.83;;;3.38;;
59649;SDS011;46162;57.568;25.814;2024-03-23T05:00:07;18.70;;;2.28;;
59649;SDS011;46162;57.568;25.814;2024-03-23T05:02:43;20.92;;;3.72;;
59649;SDS011;46162;57.568;25.814;2024-03-23T05:05:10;20.15;;;3.42;;
59649;SDS011;46162;57.568;25.814;2024-03-23T05:07:38;25.77;;;2.88;;
59649;SDS011;46162;57.568;25.814;2024-03-23T05:10:05;29.42;;;3.22;;
59649;SDS011;46162;57.568;25.814;2024-03-23T05:15:02;18.77;;;2.90;;
59649;SDS011;46162;57.568;25.814;2024-03-23T05:17:32;24.08;;;3.10;;
59649;SDS011;46162;57.568;25.814;2024-03-23T05:19:58;25.85;;;2.97;;
59649;SDS011;46162;57.568;25.814;2024-03-23T05:22:26;31.58;;;2.75;;
59649;SDS011;46162;57.568;25.814;2024-03-23T05:24:53;25.77;;;2.83;;
59649;SDS011;46162;57.568;25.814;2024-03-23T05:27:20;25.75;;;3.15;;
59649;SDS011;46162;57.568;25.814;2024-03-23T05:29:47;21.52;;;2.67;;
59649;SDS011;46162;57.568;25.814;2024-03-23T05:32:14;18.80;;;2.47;;
59649;SDS011;46162;57.568;25.814;2024-03-23T05:34:43;25.63;;;2.83;;
59649;SDS011;46162;57.568;25.814;2024-03-23T05:37:11;26.13;;;2.92;;
59649;SDS011;46162;57.568;25.814;2024-03-23T05:39:37;24.10;;;2.08;;
59649;SDS011;46162;57.568;25.814;2024-03-23T05:42:05;16.05;;;2.53;;
59649;SDS011;46162;57.568;25.814;2024-03-23T05:44:32;21.50;;;2.92;;
59649;SDS011;46162;57.568;25.814;2024-03-23T05:46:59;26.92;;;2.97;;
59649;SDS011;46162;57.568;25.814;2024-03-23T05:49:26;19.60;;;2.60;;
59649;SDS011;46162;57.568;25.814;2024-03-23T05:51:55;22.60;;;2.00;;
59649;SDS011;46162;57.568;25.814;2024-03-23T05:54:21;23.60;;;1.90;;
59649;SDS011;46162;57.568;25.814;2024-03-23T05:56:49;21.85;;;2.08;;
59649;SDS011;46162;57.568;25.814;2024-03-23T05:59:15;22.30;;;2.00;;
59649;SDS011;46162;57.568;25.814;2024-03-23T06:01:43;21.20;;;1.40;;
59649;SDS011;46162;57.568;25.814;2024-03-23T06:04:09;23.42;;;2.13;;
59649;SDS011;46162;57.568;25.814;2024-03-23T06:06:37;22.52;;;3.30;;
59649;SDS011;46162;57.568;25.814;2024-03-23T06:09:05;17.42;;;2.03;;
59649;SDS011;46162;57.568;25.814;2024-03-23T06:11:32;18.23;;;2.03;;
59649;SDS011;46162;57.568;25.814;2024-03-23T06:13:59;25.23;;;2.88;;
59649;SDS011;46162;57.568;25.814;2024-03-23T06:16:26;28.23;;;2.08;;
59649;SDS011;46162;57.568;25.814;2024-03-23T06:18:53;33.53;;;2.75;;
59649;SDS011;46162;57.568;25.814;2024-03-23T06:21:21;21.23;;;1.88;;
59649;SDS011;46162;57.568;25.814;2024-03-23T06:23:51;18.80;;;2.08;;
59649;SDS011;46162;57.568;25.814;2024-03-23T06:26:20;23.40;;;1.48;;
59649;SDS011;46162;57.568;25.814;2024-03-23T06:28:47;29.35;;;2.22;;
59649;SDS011;46162;57.568;25.814;2024-03-23T06:31:15;26.42;;;2.00;;
59649;SDS011;46162;57.568;25.814;2024-03-23T06:33:41;25.70;;;2.40;;
59649;SDS011;46162;57.568;25.814;2024-03-23T06:36:09;20.05;;;1.77;;
59649;SDS011;46162;57.568;25.814;2024-03-23T06:38:36;23.80;;;1.95;;
59649;SDS011;46162;57.568;25.814;2024-03-23T06:41:04;19.90;;;2.33;;
59649;SDS011;46162;57.568;25.814;2024-03-23T06:43:33;23.42;;;2.60;;
59649;SDS011;46162;57.568;25.814;2024-03-23T06:46:01;18.05;;;0.98;;
59649;SDS011;46162;57.568;25.814;2024-03-23T06:48:30;22.38;;;2.30;;
59649;SDS011;46162;57.568;25.814;2024-03-23T06:50:57;25.13;;;1.40;;
59649;SDS011;46162;57.568;25.814;2024-03-23T06:53:24;20.75;;;1.40;;
59649;SDS011;46162;57.568;25.814;2024-03-23T06:55:51;28.40;;;2.17;;
59649;SDS011;46162;57.568;25.814;2024-03-23T06:58:19;19.15;;;1.38;;
59649;SDS011;46162;57.568;25.814;2024-03-23T07:00:48;24.13;;;2.55;;
59649;SDS011;46162;57.568;25.814;2024-03-23T07:03:16;22.85;;;1.83;;
59649;SDS011;46162;57.568;25.814;2024-03-23T07:05:44;19.75;;;1.95;;
59649;SDS011;46162;57.568;25.814;2024-03-23T07:08:12;21.02;;;2.13;;
59649;SDS011;46162;57.568;25.814;2024-03-23T07:10:44;24.02;;;1.75;;
59649;SDS011;46162;57.568;25.814;2024-03-23T07:13:10;19.77;;;1.55;;
59649;SDS011;46162;57.568;25.814;2024-03-23T07:15:38;24.05;;;1.63;;
59649;SDS011;46162;57.568;25.814;2024-03-23T07:18:06;22.60;;;1.85;;
59649;SDS011;46162;57.568;25.814;2024-03-23T07:20:33;21.77;;;1.58;;
59649;SDS011;46162;57.568;25.814;2024-03-23T07:23:00;18.30;;;1.80;;
59649;SDS011;46162;57.568;25.814;2024-03-23T07:25:27;26.00;;;2.58;;
59649;SDS011;46162;57.568;25.814;2024-03-23T07:27:54;20.60;;;1.55;;
59649;SDS011;46162;57.568;25.814;2024-03-23T07:30:22;23.27;;;1.65;;
59649;SDS011;46162;57.568;25.814;2024-03-23T07:32:48;21.05;;;1.40;;
59649;SDS011;46162;57.568;25.814;2024-03-23T07:35:17;20.27;;;2.55;;
59649;SDS011;46162;57.568;25.814;2024-03-23T07:37:44;24.95;;;1.70;;
59649;SDS011;46162;57.568;25.814;2024-03-23T07:40:13;20.95;;;1.33;;
59649;SDS011;46162;57.568;25.814;2024-03-23T07:42:39;23.08;;;1.88;;
59649;SDS011;46162;57.568;25.814;2024-03-23T07:45:07;20.38;;;1.55;;
59649;SDS011;46162;57.568;25.814;2024-03-23T07:47:35;25.60;;;2.38;;
59649;SDS011;46162;57.568;25.814;2024-03-23T07:50:02;26.83;;;2.35;;
59649;SDS011;46162;57.568;25.814;2024-03-23T07:52:31;18.90;;;1.08;;
59649;SDS011;46162;57.568;25.814;2024-03-23T07:54:58;23.95;;;2.42;;
59649;SDS011;46162;57.568;25.814;2024-03-23T07:57:25;24.95;;;2.05;;
59649;SDS011;46162;57.568;25.814;2024-03-23T07:59:52;22.63;;;1.30;;
59649;SDS011;46162;57.568;25.814;2024-03-23T08:02:19;17.15;;;1.30;;
59649;SDS011;46162;57.568;25.814;2024-03-23T08:04:46;18.27;;;1.70;;
59649;SDS011;46162;57.568;25.814;2024-03-23T08:07:13;19.48;;;1.13;;
59649;SDS011;46162;57.568;25.814;2024-03-23T08:09:42;22.45;;;1.90;;
59649;SDS011;46162;57.568;25.814;2024-03-23T08:12:10;21.17;;;1.25;;
59649;SDS011;46162;57.568;25.814;2024-03-23T08:14:37;23.55;;;1.33;;
59649;SDS011;46162;57.568;25.814;2024-03-23T08:17:04;20.48;;;1.73;;
59649;SDS011;46162;57.568;25.814;2024-03-23T08:19:31;22.85;;;3.53;;
59649;SDS011;46162;57.568;25.814;2024-03-23T08:21:58;21.27;;;1.70;;
59649;SDS011;46162;57.568;25.814;2024-03-23T08:24:25;19.30;;;1.98;;
59649;SDS011;46162;57.568;25.814;2024-03-23T08:26:55;24.63;;;1.88;;
59649;SDS011;46162;57.568;25.814;2024-03-23T08:29:22;20.65;;;1.63;;
59649;SDS011;46162;57.568;25.814;2024-03-23T08:31:49;24.90;;;1.95;;
59649;SDS011;46162;57.568;25.814;2024-03-23T08:34:16;26.00;;;4.18;;
59649;SDS011;46162;57.568;25.814;2024-03-23T08:36:43;24.25;;;3.63;;
59649;SDS011;46162;57.568;25.814;2024-03-23T08:39:10;24.65;;;2.25;;
59649;SDS011;46162;57.568;25.814;2024-03-23T08:41:37;22.25;;;1.55;;
59649;SDS011;46162;57.568;25.814;2024-03-23T08:44:05;20.75;;;1.55;;
59649;SDS011;46162;57.568;25.814;2024-03-23T08:46:33;20.30;;;1.02;;
59649;SDS011;46162;57.568;25.814;2024-03-23T08:48:59;21.17;;;1.13;;
59649;SDS011;46162;57.568;25.814;2024-03-23T08:51:27;15.02;;;1.08;;
59649;SDS011;46162;57.568;25.814;2024-03-23T08:53:54;14.73;;;1.27;;
59649;SDS011;46162;57.568;25.814;2024-03-23T08:56:21;16.60;;;0.60;;
59649;SDS011;46162;57.568;25.814;2024-03-23T08:58:48;17.60;;;1.42;;
59649;SDS011;46162;57.568;25.814;2024-03-23T09:01:16;13.68;;;0.90;;
59649;SDS011;46162;57.568;25.814;2024-03-23T09:03:44;16.98;;;0.95;;
59649;SDS011;46162;57.568;25.814;2024-03-23T09:06:11;19.50;;;1.40;;
59649;SDS011;46162;57.568;25.814;2024-03-23T09:08:40;18.98;;;0.95;;
59649;SDS011;46162;57.568;25.814;2024-03-23T09:11:07;21.15;;;1.15;;
59649;SDS011;46162;57.568;25.814;2024-03-23T09:13:36;15.02;;;1.02;;
59649;SDS011;46162;57.568;25.814;2024-03-23T09:16:04;14.95;;;0.98;;
59649;SDS011;46162;57.568;25.814;2024-03-23T09:18:34;14.88;;;1.02;;
59649;SDS011;46162;57.568;25.814;2024-03-23T09:21:01;14.95;;;0.95;;
59649;SDS011;46162;57.568;25.814;2024-03-23T09:23:29;16.20;;;1.17;;
59649;SDS011;46162;57.568;25.814;2024-03-23T09:25:56;16.38;;;0.70;;
59649;SDS011;46162;57.568;25.814;2024-03-23T09:28:25;15.02;;;0.82;;
59649;SDS011;46162;57.568;25.814;2024-03-23T09:30:51;12.43;;;0.90;;
59649;SDS011;46162;57.568;25.814;2024-03-23T09:33:19;12.32;;;0.88;;
59649;SDS011;46162;57.568;25.814;2024-03-23T09:35:47;18.95;;;1.05;;
59649;SDS011;46162;57.568;25.814;2024-03-23T09:38:14;13.45;;;0.60;;
59649;SDS011;46162;57.568;25.814;2024-03-23T09:40:40;16.10;;;0.98;;
59649;SDS011;46162;57.568;25.814;2024-03-23T09:43:08;13.70;;;1.05;;
59649;SDS011;46162;57.568;25.814;2024-03-23T09:45:36;18.60;;;1.25;;
59649;SDS011;46162;57.568;25.814;2024-03-23T09:48:06;15.60;;;0.80;;
59649;SDS011;46162;57.568;25.814;2024-03-23T09:50:35;14.75;;;0.70;;
59649;SDS011;46162;57.568;25.814;2024-03-23T09:53:05;13.85;;;1.00;;
59649;SDS011;46162;57.568;25.814;2024-03-23T09:55:33;13.88;;;0.90;;
59649;SDS011;46162;57.568;25.814;2024-03-23T09:58:01;12.52;;;0.65;;
59649;SDS011;46162;57.568;25.814;2024-03-23T10:00:28;14.45;;;1.33;;
59649;SDS011;46162;57.568;25.814;2024-03-23T10:02:55;15.82;;;1.27;;
59649;SDS011;46162;57.568;25.814;2024-03-23T10:05:24;12.35;;;1.20;;
59649;SDS011;46162;57.568;25.814;2024-03-23T10:07:53;13.52;;;0.90;;
59649;SDS011;46162;57.568;25.814;2024-03-23T10:10:21;15.85;;;0.73;;
59649;SDS011;46162;57.568;25.814;2024-03-23T10:12:48;17.15;;;1.13;;
59649;SDS011;46162;57.568;25.814;2024-03-23T10:15:19;17.25;;;0.77;;
59649;SDS011;46162;57.568;25.814;2024-03-23T10:17:48;15.50;;;1.27;;
59649;SDS011;46162;57.568;25.814;2024-03-23T10:20:19;15.25;;;1.38;;
59649;SDS011;46162;57.568;25.814;2024-03-23T10:22:48;17.70;;;2.15;;
59649;SDS011;46162;57.568;25.814;2024-03-23T10:25:17;12.93;;;0.40;;
59649;SDS011;46162;57.568;25.814;2024-03-23T10:27:56;14.05;;;0.77;;
59649;SDS011;46162;57.568;25.814;2024-03-23T10:30:26;22.50;;;1.50;;
59649;SDS011;46162;57.568;25.814;2024-03-23T10:32:55;16.10;;;0.90;;
59649;SDS011;46162;57.568;25.814;2024-03-23T10:35:34;14.98;;;0.85;;
59649;SDS011;46162;57.568;25.814;2024-03-23T10:38:01;14.90;;;0.73;;
59649;SDS011;46162;57.568;25.814;2024-03-23T10:40:31;12.57;;;0.73;;
59649;SDS011;46162;57.568;25.814;2024-03-23T10:43:02;13.55;;;0.68;;
59649;SDS011;46162;57.568;25.814;2024-03-23T10:45:30;16.35;;;1.42;;
59649;SDS011;46162;57.568;25.814;2024-03-23T10:47:57;18.17;;;1.05;;
59649;SDS011;46162;57.568;25.814;2024-03-23T10:50:25;14.00;;;0.73;;
59649;SDS011;46162;57.568;25.814;2024-03-23T10:52:52;15.65;;;1.10;;
59649;SDS011;46162;57.568;25.814;2024-03-23T10:55:21;16.38;;;0.90;;
59649;SDS011;46162;57.568;25.814;2024-03-23T10:57:50;15.02;;;0.75;;
59649;SDS011;46162;57.568;25.814;2024-03-23T11:00:21;10.20;;;0.47;;
59649;SDS011;46162;57.568;25.814;2024-03-23T11:02:49;16.63;;;0.82;;
59649;SDS011;46162;57.568;25.814;2024-03-23T11:05:29;16.25;;;0.77;;
59649;SDS011;46162;57.568;25.814;2024-03-23T11:07:55;10.77;;;0.73;;
59649;SDS011;46162;57.568;25.814;2024-03-23T11:10:26;16.10;;;1.17;;
59649;SDS011;46162;57.568;25.814;2024-03-23T11:12:56;19.05;;;1.73;;
59649;SDS011;46162;57.568;25.814;2024-03-23T11:15:25;11.75;;;0.60;;
59649;SDS011;46162;57.568;25.814;2024-03-23T11:18:04;11.75;;;0.47;;
59649;SDS011;46162;57.568;25.814;2024-03-23T11:20:34;18.48;;;1.23;;
59649;SDS011;46162;57.568;25.814;2024-03-23T11:23:01;8.57;;;0.45;;
59649;SDS011;46162;57.568;25.814;2024-03-23T11:25:29;16.38;;;0.65;;
59649;SDS011;46162;57.568;25.814;2024-03-23T11:27:56;13.57;;;1.15;;
59649;SDS011;46162;57.568;25.814;2024-03-23T11:30:26;12.80;;;0.85;;
59649;SDS011;46162;57.568;25.814;2024-03-23T11:32:55;13.43;;;0.75;;
59649;SDS011;46162;57.568;25.814;2024-03-23T11:35:27;17.65;;;1.30;;
59649;SDS011;46162;57.568;25.814;2024-03-23T11:38:07;14.13;;;1.02;;
59649;SDS011;46162;57.568;25.814;2024-03-23T11:40:36;16.30;;;0.65;;
59649;SDS011;46162;57.568;25.814;2024-03-23T11:43:03;14.02;;;1.00;;
59649;SDS011;46162;57.568;25.814;2024-03-23T11:45:37;9.63;;;0.55;;
59649;SDS011;46162;57.568;25.814;2024-03-23T11:48:06;11.10;;;0.77;;
59649;SDS011;46162;57.568;25.814;2024-03-23T11:50:36;14.60;;;0.68;;
59649;SDS011;46162;57.568;25.814;2024-03-23T11:53:06;11.52;;;0.82;;
59649;SDS011;46162;57.568;25.814;2024-03-23T11:55:47;13.13;;;0.60;;
59649;SDS011;46162;57.568;25.814;2024-03-23T11:58:15;11.20;;;1.40;;
59649;SDS011;46162;57.568;25.814;2024-03-23T12:00:51;18.50;;;1.10;;
59649;SDS011;46162;57.568;25.814;2024-03-23T12:03:18;14.00;;;1.05;;
59649;SDS011;46162;57.568;25.814;2024-03-23T12:05:48;12.63;;;0.60;;
59649;SDS011;46162;57.568;25.814;2024-03-23T12:08:20;10.18;;;0.50;;
59649;SDS011;46162;57.568;25.814;2024-03-23T12:10:49;7.68;;;0.25;;
59649;SDS011;46162;57.568;25.814;2024-03-23T12:13:20;12.38;;;1.20;;
59649;SDS011;46162;57.568;25.814;2024-03-23T12:15:50;9.85;;;0.80;;
59649;SDS011;46162;57.568;25.814;2024-03-23T12:18:17;10.07;;;0.50;;
59649;SDS011;46162;57.568;25.814;2024-03-23T12:20:50;13.55;;;0.63;;
59649;SDS011;46162;57.568;25.814;2024-03-23T12:23:16;7.75;;;0.30;;
59649;SDS011;46162;57.568;25.814;2024-03-23T12:25:44;9.00;;;0.40;;
59649;SDS011;46162;57.568;25.814;2024-03-23T12:28:11;15.05;;;0.85;;
59649;SDS011;46162;57.568;25.814;2024-03-23T12:30:39;9.63;;;0.55;;
59649;SDS011;46162;57.568;25.814;2024-03-23T12:33:07;10.50;;;0.40;;
59649;SDS011;46162;57.568;25.814;2024-03-23T12:35:35;10.13;;;0.60;;
59649;SDS011;46162;57.568;25.814;2024-03-23T12:38:01;8.13;;;0.65;;
59649;SDS011;46162;57.568;25.814;2024-03-23T12:40:29;12.48;;;0.60;;
59649;SDS011;46162;57.568;25.814;2024-03-23T12:42:55;9.70;;;0.35;;
59649;SDS011;46162;57.568;25.814;2024-03-23T12:45:23;10.73;;;0.88;;
59649;SDS011;46162;57.568;25.814;2024-03-23T12:47:50;12.15;;;0.50;;
59649;SDS011;46162;57.568;25.814;2024-03-23T12:50:21;9.65;;;0.35;;
59649;SDS011;46162;57.568;25.814;2024-03-23T12:52:47;12.27;;;0.75;;
59649;SDS011;46162;57.568;25.814;2024-03-23T12:55:15;13.48;;;0.50;;
59649;SDS011;46162;57.568;25.814;2024-03-23T12:57:42;12.68;;;0.40;;
59649;SDS011;46162;57.568;25.814;2024-03-23T13:00:10;7.07;;;0.40;;
59649;SDS011;46162;57.568;25.814;2024-03-23T13:02:37;11.30;;;0.50;;
59649;SDS011;46162;57.568;25.814;2024-03-23T13:05:06;6.45;;;0.50;;
59649;SDS011;46162;57.568;25.814;2024-03-23T13:07:35;11.00;;;1.27;;
59649;SDS011;46162;57.568;25.814;2024-03-23T13:10:04;11.10;;;0.60;;
59649;SDS011;46162;57.568;25.814;2024-03-23T13:12:31;11.18;;;0.47;;
59649;SDS011;46162;57.568;25.814;2024-03-23T13:14:59;11.00;;;0.40;;
59649;SDS011;46162;57.568;25.814;2024-03-23T13:17:26;12.63;;;0.20;;
59649;SDS011;46162;57.568;25.814;2024-03-23T13:19:54;10.93;;;0.38;;
59649;SDS011;46162;57.568;25.814;2024-03-23T13:22:21;13.55;;;0.60;;
59649;SDS011;46162;57.568;25.814;2024-03-23T13:24:50;9.48;;;0.82;;
59649;SDS011;46162;57.568;25.814;2024-03-23T13:27:17;9.95;;;0.50;;
59649;SDS011;46162;57.568;25.814;2024-03-23T13:29:45;10.60;;;0.40;;
59649;SDS011;46162;57.568;25.814;2024-03-23T13:32:12;6.38;;;0.22;;
59649;SDS011;46162;57.568;25.814;2024-03-23T13:34:40;11.98;;;0.30;;
59649;SDS011;46162;57.568;25.814;2024-03-23T13:37:06;10.93;;;0.43;;
59649;SDS011;46162;57.568;25.814;2024-03-23T13:39:35;6.97;;;0.55;;
59649;SDS011;46162;57.568;25.814;2024-03-23T13:42:03;13.25;;;0.47;;
59649;SDS011;46162;57.568;25.814;2024-03-23T13:44:31;12.10;;;1.33;;
59649;SDS011;46162;57.568;25.814;2024-03-23T13:46:58;9.30;;;0.63;;
59649;SDS011;46162;57.568;25.814;2024-03-23T13:49:26;8.73;;;0.32;;
59649;SDS011;46162;57.568;25.814;2024-03-23T13:51:54;7.15;;;0.20;;
59649;SDS011;46162;57.568;25.814;2024-03-23T13:54:23;15.02;;;0.93;;
59649;SDS011;46162;57.568;25.814;2024-03-23T13:56:50;17.38;;;0.45;;
59649;SDS011;46162;57.568;25.814;2024-03-23T13:59:19;9.70;;;0.80;;
59649;SDS011;46162;57.568;25.814;2024-03-23T14:01:46;11.82;;;0.50;;
59649;SDS011;46162;57.568;25.814;2024-03-23T14:04:14;10.60;;;0.60;;
59649;SDS011;46162;57.568;25.814;2024-03-23T14:06:42;8.45;;;0.20;;
59649;SDS011;46162;57.568;25.814;2024-03-23T14:09:11;6.97;;;0.20;;
59649;SDS011;46162;57.568;25.814;2024-03-23T14:11:37;8.68;;;0.68;;
59649;SDS011;46162;57.568;25.814;2024-03-23T14:14:06;14.88;;;0.30;;
59649;SDS011;46162;57.568;25.814;2024-03-23T14:16:35;8.77;;;0.20;;
59649;SDS011;46162;57.568;25.814;2024-03-23T14:19:02;10.45;;;0.52;;
59649;SDS011;46162;57.568;25.814;2024-03-23T14:21:30;10.57;;;0.47;;
59649;SDS011;46162;57.568;25.814;2024-03-23T14:23:58;10.27;;;0.55;;
59649;SDS011;46162;57.568;25.814;2024-03-23T14:26:24;12.02;;;0.32;;
59649;SDS011;46162;57.568;25.814;2024-03-23T14:28:52;8.85;;;1.15;;
59649;SDS011;46162;57.568;25.814;2024-03-23T14:31:18;12.55;;;0.60;;
59649;SDS011;46162;57.568;25.814;2024-03-23T14:33:48;10.23;;;0.95;;
59649;SDS011;46162;57.568;25.814;2024-03-23T14:36:16;13.02;;;0.63;;
59649;SDS011;46162;57.568;25.814;2024-03-23T14:38:46;9.82;;;0.93;;
59649;SDS011;46162;57.568;25.814;2024-03-23T14:41:13;9.13;;;0.30;;
59649;SDS011;46162;57.568;25.814;2024-03-23T14:43:41;14.82;;;0.68;;
59649;SDS011;46162;57.568;25.814;2024-03-23T14:46:09;6.20;;;0.10;;
59649;SDS011;46162;57.568;25.814;2024-03-23T14:48:38;8.55;;;0.35;;
59649;SDS011;46162;57.568;25.814;2024-03-23T14:51:07;9.60;;;0.73;;
59649;SDS011;46162;57.568;25.814;2024-03-23T14:53:36;12.60;;;0.68;;
59649;SDS011;46162;57.568;25.814;2024-03-23T14:56:06;9.70;;;0.50;;
59649;SDS011;46162;57.568;25.814;2024-03-23T14:58:34;8.75;;;0.30;;
59649;SDS011;46162;57.568;25.814;2024-03-23T15:01:01;8.95;;;0.88;;
59649;SDS011;46162;57.568;25.814;2024-03-23T15:03:28;6.00;;;0.50;;
59649;SDS011;46162;57.568;25.814;2024-03-23T15:05:55;5.05;;;0.20;;
59649;SDS011;46162;57.568;25.814;2024-03-23T15:08:25;9.88;;;0.28;;
59649;SDS011;46162;57.568;25.814;2024-03-23T15:10:53;9.52;;;0.40;;
59649;SDS011;46162;57.568;25.814;2024-03-23T15:13:21;10.40;;;0.32;;
59649;SDS011;46162;57.568;25.814;2024-03-23T15:15:48;9.10;;;0.22;;
59649;SDS011;46162;57.568;25.814;2024-03-23T15:18:17;17.15;;;0.65;;
59649;SDS011;46162;57.568;25.814;2024-03-23T15:20:51;11.50;;;0.32;;